Terminal Aerodrome Forecast
Issued by NWS Twin Cities, MN

Home | Current Version | Previous Version | Graphics & Text | Print | Product List | Glossary On
Versions: 1 2 3 4 5 6 7 8 9 10 11 12 13 14 15 16 17
270
FTUS43 KMPX 041738
TAFEAU
TAF
KEAU 041738Z 0418/0518 16008KT 1SM -SN BR OVC007
     FM041900 18007KT 3SM -SN BR OVC005
     FM050000 21006KT P6SM OVC015
     FM050300 22006KT P6SM FEW025
     FM050800 VRB03KT 1/2SM FZFG VV002
     FM051500 14009KT P6SM OVC090=

USA.gov is the U.S. government's official web portal to all federal, state and local government web resources and services.